Terminal Aerodrome Forecast
Issued by NWS Charleston, WV

Current Version | Previous Version | Graphics & Text | Print | Product List | Glossary On
Versions: 1 2 3 4 5 6 7 8 9 10 11 12 13 14 15 16 17 18 19 20 21 22 23 24 25
000
FTUS41 KRLX 281100 AAB
TAFEKN
TAF AMD
KEKN 281100Z 2811/2906 16005KT 4SM RA FEW004 OVC040
     FM281400 18006KT 4SM SHRA OVC019
     FM281700 25007KT P6SM VCSH BKN016
     FM290000 00000KT 5SM BR VCSH BKN023=

USA.gov is the U.S. government's official web portal to all federal, state and local government web resources and services.